Terminal Aerodrome Forecast
Issued by NWS

Home | Current Version | Previous Version | Text Only | Print | Product List | Glossary On
Versions: 1 2 3 4 5 6 7 8 9 10 11 12 13 14 15
000
FTUS43 KOAX 030529
TAFSNY
TAF
KSNY 030529Z 0306/0406 22009KT P6SM SCT120
     FM030800 26008KT P6SM SCT120
     FM032100 26010KT P6SM VCTS SCT050CB BKN100
     FM040100 06008KT P6SM -SHRA VCTS BKN050CB BKN100=

USA.gov is the U.S. government's official web portal to all federal, state and local government web resources and services.